createdAt,value
2022-11-17T00:01:33.191Z,16.67
2022-11-17T00:04:01.145Z,14.98
2022-11-17T00:06:29.055Z,17.90
2022-11-17T00:08:57.095Z,17.95
2022-11-17T00:11:24.936Z,18.50
2022-11-17T00:14:11.327Z,16.25
2022-11-17T00:16:38.881Z,17.05
2022-11-17T00:19:29.636Z,16.52
2022-11-17T00:21:57.401Z,17.02
2022-11-17T00:24:25.532Z,18.35
2022-11-17T00:27:02.354Z,17.75
2022-11-17T00:31:06.576Z,17.13
2022-11-17T00:33:52.992Z,20.90
2022-11-17T00:36:25.659Z,16.38
2022-11-17T00:38:53.203Z,21.40
2022-11-17T00:41:22.631Z,19.92
2022-11-17T00:43:50.715Z,17.90
2022-11-17T00:46:18.244Z,16.77
2022-11-17T00:48:45.736Z,16.17
2022-11-17T00:51:14.246Z,20.15
2022-11-17T00:53:42.215Z,20.30
2022-11-17T00:56:16.029Z,18.17
2022-11-17T00:58:44.337Z,16.55
2022-11-17T01:01:12.458Z,19.70
2022-11-17T01:03:40.678Z,17.05
2022-11-17T01:06:15.557Z,17.33
2022-11-17T01:08:44.220Z,19.73
2022-11-17T01:11:14.891Z,21.50
2022-11-17T01:13:43.701Z,18.85
2022-11-17T01:16:14.035Z,20.37
2022-11-17T01:18:42.209Z,22.30
2022-11-17T01:21:15.766Z,22.65
2022-11-17T01:23:46.193Z,21.25
2022-11-17T01:26:20.206Z,20.83
2022-11-17T01:28:48.532Z,22.55
2022-11-17T01:31:23.064Z,18.90
2022-11-17T01:33:51.283Z,21.38
2022-11-17T01:36:22.590Z,20.15
2022-11-17T01:38:50.571Z,22.60
2022-11-17T01:41:19.707Z,19.73
2022-11-17T01:43:58.961Z,20.45
2022-11-17T01:46:29.468Z,19.63
2022-11-17T01:49:10.928Z,20.63
2022-11-17T01:51:47.191Z,19.17
2022-11-17T01:54:20.181Z,17.65
2022-11-17T01:56:55.306Z,18.85
2022-11-17T01:59:30.012Z,20.00
2022-11-17T02:01:58.693Z,20.65
2022-11-17T02:04:37.553Z,18.42
2022-11-17T02:07:20.044Z,18.13
2022-11-17T02:09:48.817Z,18.52
2022-11-17T02:12:16.834Z,18.73
2022-11-17T02:14:45.045Z,19.38
2022-11-17T02:17:14.481Z,19.17
2022-11-17T02:19:45.550Z,20.90
2022-11-17T02:22:31.994Z,17.33
2022-11-17T02:25:26.845Z,16.73
2022-11-17T02:28:18.622Z,18.08
2022-11-17T02:31:14.475Z,17.25
2022-11-17T02:33:44.834Z,17.38
2022-11-17T02:36:33.541Z,18.00
2022-11-17T02:39:10.190Z,19.27
2022-11-17T02:41:49.895Z,22.15
2022-11-17T02:44:41.475Z,20.05
2022-11-17T02:47:20.386Z,23.77
2022-11-17T02:50:10.823Z,24.52
2022-11-17T02:52:38.870Z,20.50
2022-11-17T02:55:09.811Z,20.00
2022-11-17T02:57:40.079Z,19.63
2022-11-17T03:00:10.702Z,18.42
2022-11-17T03:02:57.907Z,14.65
2022-11-17T03:06:11.264Z,19.00
2022-11-17T03:08:40.628Z,17.30
2022-11-17T03:11:10.351Z,18.77
2022-11-17T03:13:49.401Z,17.77
2022-11-17T03:16:25.223Z,19.70
2022-11-17T03:19:01.512Z,20.15
2022-11-17T03:21:34.973Z,24.95
2022-11-17T03:24:05.149Z,21.05
2022-11-17T03:26:36.435Z,22.08
2022-11-17T03:29:09.275Z,21.52
2022-11-17T03:31:38.558Z,23.60
2022-11-17T03:34:12.289Z,21.75
2022-11-17T03:36:45.734Z,23.80
2022-11-17T03:39:23.959Z,23.05
2022-11-17T03:42:00.056Z,26.52
2022-11-17T03:44:30.578Z,21.58
2022-11-17T03:46:59.980Z,25.33
2022-11-17T03:49:43.465Z,21.58
2022-11-17T03:52:11.801Z,18.38
2022-11-17T03:54:40.898Z,22.10
2022-11-17T03:57:21.728Z,26.98
2022-11-17T04:00:01.322Z,19.33
2022-11-17T04:02:31.871Z,23.02
2022-11-17T04:05:05.750Z,18.23
2022-11-17T04:07:34.672Z,20.45
2022-11-17T04:10:03.682Z,20.88
2022-11-17T04:12:50.944Z,23.77
2022-11-17T04:15:37.112Z,20.05
2022-11-17T04:18:04.776Z,22.60
2022-11-17T04:20:38.935Z,26.60
2022-11-17T04:23:12.198Z,20.45
2022-11-17T04:26:13.166Z,25.25
2022-11-17T04:28:47.120Z,25.60
2022-11-17T04:31:15.773Z,20.98
2022-11-17T04:33:45.574Z,23.67
2022-11-17T04:36:16.532Z,20.73
2022-11-17T04:38:46.510Z,18.90
2022-11-17T04:41:35.270Z,19.58
2022-11-17T04:44:04.750Z,21.60
2022-11-17T04:46:34.702Z,20.25
2022-11-17T04:49:03.795Z,22.38
2022-11-17T04:51:32.749Z,22.35
2022-11-17T04:54:01.259Z,27.73
2022-11-17T04:56:31.206Z,29.17
2022-11-17T04:58:58.811Z,22.90
2022-11-17T05:01:28.004Z,19.50
2022-11-17T05:04:01.185Z,33.38
2022-11-17T05:06:35.053Z,27.38
2022-11-17T05:09:06.779Z,33.70
2022-11-17T05:11:52.995Z,27.52
2022-11-17T05:14:24.428Z,31.67
2022-11-17T05:17:10.868Z,34.63
2022-11-17T05:19:47.981Z,34.78
2022-11-17T05:22:36.931Z,35.35
2022-11-17T05:25:05.814Z,36.35
2022-11-17T05:27:34.524Z,26.67
2022-11-17T05:30:03.805Z,29.60
2022-11-17T05:32:31.566Z,26.85
2022-11-17T05:34:59.191Z,32.88
2022-11-17T05:37:26.735Z,23.33
2022-11-17T05:39:54.901Z,30.73
2022-11-17T05:42:22.459Z,25.45
2022-11-17T05:44:50.181Z,25.70
2022-11-17T05:47:17.734Z,26.73
2022-11-17T05:49:46.308Z,23.75
2022-11-17T05:52:13.969Z,31.15
2022-11-17T05:54:41.606Z,29.63
2022-11-17T05:57:16.464Z,32.00
2022-11-17T05:59:54.567Z,33.10
2022-11-17T06:02:31.348Z,32.13
2022-11-17T06:04:59.123Z,27.88
2022-11-17T06:07:27.386Z,31.50
2022-11-17T06:09:56.695Z,30.10
2022-11-17T06:12:24.375Z,27.30
2022-11-17T06:14:52.162Z,26.33
2022-11-17T06:17:25.893Z,22.45
2022-11-17T06:20:03.243Z,24.50
2022-11-17T06:22:31.971Z,25.02
2022-11-17T06:25:01.935Z,27.90
2022-11-17T06:27:32.141Z,27.15
2022-11-17T06:30:03.790Z,27.70
2022-11-17T06:32:35.138Z,33.90
2022-11-17T06:35:06.374Z,32.53
2022-11-17T06:37:34.309Z,34.55
2022-11-17T06:40:01.942Z,35.75
2022-11-17T06:42:48.527Z,33.40
2022-11-17T06:45:16.451Z,36.58
2022-11-17T06:47:44.112Z,34.00
2022-11-17T06:50:12.194Z,32.83
2022-11-17T06:52:39.840Z,37.58
2022-11-17T06:55:08.712Z,28.88
2022-11-17T06:57:36.265Z,31.77
2022-11-17T07:00:06.346Z,32.38
2022-11-17T07:02:34.451Z,34.95
2022-11-17T07:05:02.008Z,32.35
2022-11-17T07:07:29.922Z,37.05
2022-11-17T07:10:03.333Z,45.03
2022-11-17T07:12:31.087Z,35.83
2022-11-17T07:14:58.716Z,35.70
2022-11-17T07:17:29.138Z,36.77
2022-11-17T07:19:57.004Z,30.02
2022-11-17T07:22:24.743Z,27.25
2022-11-17T07:24:52.390Z,32.38
2022-11-17T07:27:22.523Z,28.08
2022-11-17T07:29:51.117Z,35.65
2022-11-17T07:32:19.953Z,27.83
2022-11-17T07:34:47.722Z,23.20
2022-11-17T07:37:15.349Z,18.23
2022-11-17T07:39:43.281Z,19.17
2022-11-17T07:42:11.797Z,16.67
2022-11-17T07:44:39.366Z,18.60
2022-11-17T07:47:10.018Z,16.00
2022-11-17T07:49:38.638Z,16.23
2022-11-17T07:52:07.231Z,16.33
2022-11-17T07:54:36.089Z,18.35
2022-11-17T07:57:04.404Z,19.20
2022-11-17T07:59:32.206Z,21.63
2022-11-17T08:01:59.989Z,20.55
2022-11-17T08:04:27.490Z,23.40
2022-11-17T08:06:55.878Z,24.52
2022-11-17T08:09:23.474Z,24.33
2022-11-17T08:11:51.915Z,24.58
2022-11-17T08:14:19.545Z,28.80
2022-11-17T08:16:47.154Z,33.58
2022-11-17T08:19:15.474Z,31.83
2022-11-17T08:21:43.621Z,28.98
2022-11-17T08:24:12.692Z,27.45
2022-11-17T08:26:42.257Z,28.77
2022-11-17T08:29:10.116Z,28.25
2022-11-17T08:31:38.926Z,28.42
2022-11-17T08:34:06.522Z,27.65
2022-11-17T08:36:34.502Z,29.25
2022-11-17T08:39:02.626Z,32.03
2022-11-17T08:41:30.391Z,34.20
2022-11-17T08:44:01.316Z,29.85
2022-11-17T08:46:29.388Z,29.65
2022-11-17T08:48:58.228Z,32.15
2022-11-17T08:51:27.238Z,42.00
2022-11-17T08:53:55.980Z,40.40
2022-11-17T08:56:23.608Z,31.08
2022-11-17T08:58:51.726Z,30.83
2022-11-17T09:01:20.041Z,26.07
2022-11-17T09:03:47.976Z,21.63
2022-11-17T09:06:17.414Z,24.17
2022-11-17T09:08:46.943Z,24.52
2022-11-17T09:11:16.646Z,31.92
2022-11-17T09:13:45.919Z,24.17
2022-11-17T09:16:14.850Z,24.65
2022-11-17T09:18:42.551Z,15.23
2022-11-17T09:21:13.698Z,17.67
2022-11-17T09:23:41.965Z,18.80
2022-11-17T09:26:12.553Z,19.30
2022-11-17T09:28:40.960Z,25.13
2022-11-17T09:31:13.837Z,19.48
2022-11-17T09:33:42.784Z,23.55
2022-11-17T09:36:11.982Z,25.02
2022-11-17T09:38:40.678Z,22.75
2022-11-17T09:41:11.652Z,17.80
2022-11-17T09:43:46.312Z,15.07
2022-11-17T09:46:19.738Z,15.52
2022-11-17T09:49:08.268Z,14.13
2022-11-17T09:51:40.202Z,11.88
2022-11-17T09:54:20.482Z,13.93
2022-11-17T09:56:49.115Z,18.65
2022-11-17T09:59:19.703Z,17.20
2022-11-17T10:01:47.353Z,15.57
2022-11-17T10:04:17.026Z,107.63
2022-11-17T10:06:48.515Z,13.23
2022-11-17T10:09:28.459Z,10.82
2022-11-17T10:12:13.317Z,11.85
2022-11-17T10:14:42.708Z,11.57
2022-11-17T10:17:13.680Z,9.43
2022-11-17T10:19:42.355Z,7.95
2022-11-17T10:22:39.321Z,9.30
2022-11-17T10:25:21.757Z,9.43
2022-11-17T10:27:54.073Z,10.00
2022-11-17T10:30:24.808Z,9.82
2022-11-17T10:32:55.501Z,10.60
2022-11-17T10:35:30.737Z,9.57
2022-11-17T10:38:08.611Z,11.30
2022-11-17T10:40:39.295Z,13.52
2022-11-17T10:43:22.756Z,9.57
2022-11-17T10:45:55.285Z,12.07
2022-11-17T10:48:25.773Z,10.48
2022-11-17T10:50:57.627Z,10.38
2022-11-17T10:53:29.203Z,6.38
2022-11-17T10:56:04.672Z,6.45
2022-11-17T10:58:50.626Z,6.78
2022-11-17T11:01:29.260Z,9.75
2022-11-17T11:03:56.924Z,10.15
2022-11-17T11:06:27.910Z,9.75
2022-11-17T11:09:01.711Z,25.88
2022-11-17T11:11:42.522Z,8.07
2022-11-17T11:14:22.592Z,8.27
2022-11-17T11:16:51.068Z,7.35
2022-11-17T11:19:20.654Z,7.15
2022-11-17T11:22:32.667Z,5.93
2022-11-17T11:25:41.615Z,8.13
2022-11-17T11:28:49.067Z,9.82
2022-11-17T11:31:22.977Z,8.45
2022-11-17T11:33:53.517Z,11.80
2022-11-17T11:36:40.573Z,10.45
2022-11-17T11:39:32.071Z,10.70
2022-11-17T11:42:15.188Z,11.05
2022-11-17T11:45:03.573Z,13.82
2022-11-17T11:48:09.174Z,13.65
2022-11-17T11:50:44.012Z,9.32
2022-11-17T11:53:18.876Z,13.25
2022-11-17T11:55:50.531Z,12.75
2022-11-17T11:58:22.683Z,10.07
2022-11-17T12:01:03.907Z,12.40
2022-11-17T12:04:10.523Z,10.57
2022-11-17T12:06:40.857Z,11.23
2022-11-17T12:09:26.763Z,12.50
2022-11-17T12:12:01.302Z,9.75
2022-11-17T12:14:33.854Z,8.98
2022-11-17T12:17:04.109Z,9.18
2022-11-17T12:19:44.344Z,15.10
2022-11-17T12:22:24.569Z,10.82
2022-11-17T12:24:57.992Z,11.63
2022-11-17T12:27:42.710Z,14.55
2022-11-17T12:30:29.005Z,11.23
2022-11-17T12:32:58.360Z,11.85
2022-11-17T12:35:26.620Z,12.32
2022-11-17T12:38:23.383Z,13.15
2022-11-17T12:40:52.420Z,14.95
2022-11-17T12:43:25.551Z,16.50
2022-11-17T12:45:58.650Z,14.80
2022-11-17T12:48:36.004Z,15.60
2022-11-17T12:51:10.332Z,14.63
2022-11-17T12:53:47.155Z,12.75
2022-11-17T12:56:24.139Z,11.23
2022-11-17T12:58:58.155Z,9.57
2022-11-17T13:01:31.792Z,7.30
2022-11-17T13:04:19.185Z,8.68
2022-11-17T13:07:01.891Z,9.27
2022-11-17T13:09:33.393Z,7.35
2022-11-17T13:12:04.491Z,8.57
2022-11-17T13:14:51.377Z,5.70
2022-11-17T13:17:21.972Z,9.10
2022-11-17T13:20:00.366Z,6.38
2022-11-17T13:22:28.353Z,7.43
2022-11-17T13:24:57.861Z,7.50
2022-11-17T13:27:31.338Z,20.25
2022-11-17T13:30:28.247Z,20.17
2022-11-17T13:32:57.391Z,8.82
2022-11-17T13:35:26.903Z,8.40
2022-11-17T13:40:35.610Z,5.90
2022-11-17T13:43:05.197Z,8.80
2022-11-17T13:45:33.591Z,7.03
2022-11-17T13:48:01.316Z,8.73
2022-11-17T13:50:31.606Z,11.70
2022-11-17T13:53:16.447Z,9.48
2022-11-17T13:55:47.712Z,8.93
2022-11-17T13:58:49.049Z,9.45
2022-11-17T14:01:23.932Z,6.82
2022-11-17T14:03:52.458Z,9.82
2022-11-17T14:06:20.133Z,13.18
2022-11-17T14:09:04.499Z,11.95
2022-11-17T14:11:33.983Z,10.10
2022-11-17T14:14:01.703Z,10.18
2022-11-17T14:16:38.804Z,21.15
2022-11-17T14:19:31.820Z,10.05
2022-11-17T14:22:08.545Z,9.32
2022-11-17T14:24:37.148Z,12.85
2022-11-17T14:27:36.837Z,10.38
2022-11-17T14:32:34.984Z,8.68
2022-11-17T14:35:05.057Z,8.35
2022-11-17T14:37:32.855Z,6.68
2022-11-17T14:40:00.872Z,8.93
2022-11-17T14:42:34.589Z,10.82
2022-11-17T14:45:04.312Z,8.75
2022-11-17T14:47:36.163Z,8.25
2022-11-17T14:50:04.086Z,10.38
2022-11-17T14:52:31.794Z,9.18
2022-11-17T14:55:00.700Z,14.32
2022-11-17T14:57:28.229Z,10.07
2022-11-17T14:59:55.759Z,9.07
2022-11-17T15:02:26.675Z,6.72
2022-11-17T15:04:55.054Z,7.43
2022-11-17T15:07:23.102Z,4.25
2022-11-17T15:09:51.257Z,7.50
2022-11-17T15:12:19.015Z,5.32
2022-11-17T15:14:48.131Z,7.63
2022-11-17T15:17:16.179Z,7.00
2022-11-17T15:19:45.353Z,4.63
2022-11-17T15:22:12.884Z,5.45
2022-11-17T15:24:40.373Z,5.95
2022-11-17T15:27:08.722Z,5.60
2022-11-17T15:29:37.064Z,5.68
2022-11-17T15:32:05.121Z,5.20
2022-11-17T15:34:37.859Z,6.45
2022-11-17T15:37:05.635Z,5.07
2022-11-17T15:39:33.362Z,6.47
2022-11-17T15:42:00.876Z,5.80
2022-11-17T15:44:29.410Z,5.35
2022-11-17T15:46:57.018Z,7.65
2022-11-17T15:49:24.559Z,4.45
2022-11-17T15:51:52.134Z,10.55
2022-11-17T15:54:21.142Z,6.18
2022-11-17T15:56:49.407Z,7.38
2022-11-17T15:59:17.124Z,11.80
2022-11-17T16:01:45.040Z,8.48
2022-11-17T16:04:15.688Z,9.30
2022-11-17T16:06:45.682Z,8.73
2022-11-17T16:09:14.982Z,10.02
2022-11-17T16:11:44.211Z,31.27
2022-11-17T16:14:12.357Z,9.32
2022-11-17T16:16:40.084Z,12.20
2022-11-17T16:19:07.873Z,11.75
2022-11-17T16:21:35.410Z,11.65
2022-11-17T16:24:03.471Z,8.45
2022-11-17T16:26:32.089Z,13.32
2022-11-17T16:29:02.268Z,12.95
2022-11-17T16:31:35.307Z,9.88
2022-11-17T16:34:13.298Z,20.13
2022-11-17T16:36:43.993Z,21.70
2022-11-17T16:39:17.526Z,24.38
2022-11-17T16:41:46.001Z,24.83
2022-11-17T16:44:15.948Z,23.20
2022-11-17T16:46:45.931Z,24.33
2022-11-17T16:49:15.747Z,18.60
2022-11-17T16:51:51.753Z,15.10
2022-11-17T16:54:20.574Z,12.48
2022-11-17T16:56:48.858Z,12.80
2022-11-17T16:59:17.110Z,7.43
2022-11-17T17:01:45.566Z,6.23
2022-11-17T17:04:13.374Z,4.90
2022-11-17T17:06:44.085Z,10.38
2022-11-17T17:09:14.137Z,19.30
2022-11-17T17:11:44.788Z,9.30
2022-11-17T17:14:14.343Z,8.52
2022-11-17T17:16:42.575Z,10.05
2022-11-17T17:19:12.863Z,7.85
2022-11-17T17:24:10.366Z,8.30
2022-11-17T17:26:39.831Z,9.52
2022-11-17T17:29:08.080Z,11.77
2022-11-17T17:31:40.939Z,6.28
2022-11-17T17:34:10.396Z,4.90
2022-11-17T17:36:38.682Z,10.90
2022-11-17T17:39:07.095Z,8.60
2022-11-17T17:41:39.560Z,11.00
2022-11-17T17:44:08.699Z,10.45
2022-11-17T17:46:38.704Z,10.38
2022-11-17T17:49:06.824Z,9.82
2022-11-17T17:51:43.206Z,7.90
2022-11-17T17:54:24.000Z,5.85
2022-11-17T17:56:51.606Z,7.00
2022-11-17T17:59:20.446Z,2.85
2022-11-17T18:01:49.691Z,2.60
2022-11-17T18:04:17.451Z,9.75
2022-11-17T18:06:48.378Z,3.50
2022-11-17T18:09:19.822Z,10.57
2022-11-17T18:11:50.540Z,13.05
2022-11-17T18:14:24.366Z,9.18
2022-11-17T18:16:53.662Z,8.23
2022-11-17T18:19:22.189Z,12.43
2022-11-17T18:21:49.943Z,10.02
2022-11-17T18:24:17.754Z,8.80
2022-11-17T18:26:45.306Z,6.35
2022-11-17T18:29:18.549Z,8.95
2022-11-17T18:31:47.457Z,4.75
2022-11-17T18:34:21.821Z,4.10
2022-11-17T18:36:51.503Z,5.05
2022-11-17T18:39:19.624Z,6.03
2022-11-17T18:41:47.942Z,5.80
2022-11-17T18:44:18.521Z,6.15
2022-11-17T18:46:46.675Z,9.15
2022-11-17T18:49:15.345Z,9.57
2022-11-17T18:51:43.094Z,10.65
2022-11-17T18:54:11.296Z,11.98
2022-11-17T18:56:39.923Z,14.35
2022-11-17T18:59:11.848Z,17.75
2022-11-17T19:01:41.386Z,18.55
2022-11-17T19:04:11.949Z,18.63
2022-11-17T19:06:39.686Z,25.02
2022-11-17T19:09:08.363Z,20.52
2022-11-17T19:11:36.637Z,21.67
2022-11-17T19:14:05.503Z,14.50
2022-11-17T19:16:42.512Z,19.42
2022-11-17T19:19:13.333Z,13.75
2022-11-17T19:24:09.051Z,16.75
2022-11-17T19:26:36.957Z,18.83
2022-11-17T19:29:15.572Z,24.08
2022-11-17T19:31:45.591Z,26.05
2022-11-17T19:34:14.202Z,28.40
2022-11-17T19:36:42.471Z,24.77
2022-11-17T19:39:12.111Z,21.15
2022-11-17T19:41:39.994Z,16.17
2022-11-17T19:44:09.394Z,18.17
2022-11-17T19:46:39.004Z,15.75
2022-11-17T19:49:07.823Z,21.40
2022-11-17T19:51:37.034Z,18.00
2022-11-17T19:56:33.916Z,28.77
2022-11-17T19:59:01.502Z,20.00
2022-11-17T20:01:30.519Z,21.15
2022-11-17T20:04:01.569Z,24.08
2022-11-17T20:06:34.791Z,21.60
2022-11-17T20:09:10.048Z,25.77
2022-11-17T20:11:38.752Z,22.00
2022-11-17T20:14:09.543Z,21.60
2022-11-17T20:16:38.881Z,25.00
2022-11-17T20:19:09.326Z,25.02
2022-11-17T20:21:36.976Z,26.15
2022-11-17T20:24:04.649Z,22.63
2022-11-17T20:26:35.457Z,22.38
2022-11-17T20:29:03.007Z,15.35
2022-11-17T20:31:33.633Z,14.10
2022-11-17T20:34:03.728Z,9.85
2022-11-17T20:36:33.022Z,9.65
2022-11-17T20:39:02.992Z,11.63
2022-11-17T20:41:31.771Z,10.40
2022-11-17T20:44:00.733Z,6.13
2022-11-17T20:46:32.378Z,10.80
2022-11-17T20:49:00.111Z,19.85
2022-11-17T20:51:27.787Z,20.45
2022-11-17T20:53:55.445Z,23.42
2022-11-17T20:56:23.143Z,11.10
2022-11-17T20:58:51.030Z,8.95
2022-11-17T21:01:21.279Z,5.70
2022-11-17T21:03:49.399Z,5.45
2022-11-17T21:06:17.937Z,6.88
2022-11-17T21:08:46.692Z,5.45
2022-11-17T21:11:35.848Z,7.33
2022-11-17T21:14:06.274Z,5.35
2022-11-17T21:16:34.681Z,8.30
2022-11-17T21:19:02.821Z,6.22
2022-11-17T21:21:30.443Z,8.73
2022-11-17T21:23:58.333Z,8.27
2022-11-17T21:26:27.823Z,8.85
2022-11-17T21:28:59.315Z,7.97
2022-11-17T21:31:31.942Z,8.98
2022-11-17T21:34:02.503Z,7.15
2022-11-17T21:36:31.665Z,6.60
2022-11-17T21:39:00.050Z,8.45
2022-11-17T21:41:31.977Z,7.22
2022-11-17T21:44:02.092Z,7.95
2022-11-17T21:46:32.884Z,8.80
2022-11-17T21:49:01.238Z,8.95
2022-11-17T21:51:34.326Z,9.80
2022-11-17T21:54:05.439Z,9.52
2022-11-17T21:56:34.298Z,8.70
2022-11-17T21:59:12.856Z,7.30
2022-11-17T22:01:41.281Z,8.13
2022-11-17T22:04:12.053Z,14.57
2022-11-17T22:06:39.674Z,10.13
2022-11-17T22:09:07.840Z,12.55
2022-11-17T22:11:35.901Z,13.50
2022-11-17T22:14:15.915Z,14.10
2022-11-17T22:16:52.383Z,10.63
2022-11-17T22:19:22.298Z,9.63
2022-11-17T22:21:52.159Z,10.68
2022-11-17T22:24:20.441Z,8.95
2022-11-17T22:26:48.356Z,9.70
2022-11-17T22:29:21.881Z,11.52
2022-11-17T22:31:50.202Z,10.05
2022-11-17T22:34:18.802Z,23.20
2022-11-17T22:36:46.623Z,11.27
2022-11-17T22:39:14.350Z,10.60
2022-11-17T22:41:46.108Z,9.40
2022-11-17T22:44:15.721Z,12.23
2022-11-17T22:49:12.384Z,11.73
2022-11-17T22:51:58.446Z,10.33
2022-11-17T22:54:25.979Z,12.38
2022-11-17T22:56:53.567Z,10.90
2022-11-17T23:00:25.824Z,12.85
2022-11-17T23:02:53.676Z,13.23
2022-11-17T23:05:21.277Z,12.75
2022-11-17T23:07:48.970Z,12.55
2022-11-17T23:10:17.172Z,12.13
2022-11-17T23:12:44.948Z,14.68
2022-11-17T23:15:12.427Z,12.48
2022-11-17T23:17:40.277Z,11.65
2022-11-17T23:20:09.408Z,12.00
2022-11-17T23:22:37.404Z,12.70
2022-11-17T23:25:05.251Z,11.90
2022-11-17T23:27:32.865Z,11.93
2022-11-17T23:30:00.339Z,10.80
2022-11-17T23:32:27.928Z,13.45
2022-11-17T23:34:56.327Z,14.00
2022-11-17T23:37:24.015Z,14.95
2022-11-17T23:39:52.114Z,15.35
2022-11-17T23:42:19.705Z,13.50
2022-11-17T23:44:47.214Z,14.77
2022-11-17T23:47:14.802Z,15.35
2022-11-17T23:49:42.326Z,15.70
2022-11-17T23:52:10.009Z,15.68
2022-11-17T23:54:37.523Z,15.52
2022-11-17T23:57:05.062Z,17.08
2022-11-17T23:59:33.300Z,15.55
